Fairchilds, Texas
Current Conditions -  °F | °C
As of 2:53 PM on Friday 31 Oct 2014 (Local Time) from KSGR Reporting Station
Clear Clear  
Wind Chill: 78°   Ceiling: Unl
Heat Index: 78°   Visibility: 10mi
Dew Point: 43°   Wind: 16mph
Humidity: 29%   Direction: 330°NNW
Pressure: 30.15"   Gusts: 23mph
Location:  29.3854°N, 95.8138°W
Report Text: KSGR 311953Z 33014G20KT 10SM CLR 26/06 A3015 RMK AO2 SLP209 T02560061
Loading
Personal Weather Stations






























Interactive Weather Map
Tropical Storm Tracking
New forecast layout! Learn more

10-Day Weather Forecast

Advertisements
Track Severe Weather on mobile